Atlanta, MI

6:18 AM EST on February 25, 2017 (GMT -0500)
Sheridan Valley | | Change Station

Elev 1367 ft 44.91 °N, 84.24 °W | Updated 3 minutes ago

Overcast
Overcast
31.1 °F
Feels Like 31 °F
N
0.0
Wind Variable Wind from NNW

Today
High -- | Low -- °F
--% Chance of Precip.
Yesterday
High -- | Low -- °F
Precip. -- in
Pressure 29.35 in
Visibility 2.5 miles
Clouds Mostly Cloudy 800 ft
Overcast 2400 ft
Windchill 31 °F
Dew Point 31 °F
Humidity 99%
Rainfall 0.00 in
Snow Depth Not available.
7:20 AM 6:18 PM
Waning Crescent, 2% visible
SPECI KGLR 251111Z AUTO 28009G15KT 2 1/2SM -SN BR BKN008 OVC024 M03/M06 A2935 RMK AO2 SNB04 P0000 T10331056 $
Pressure 29.35 in
Visibility 2.5 miles
Clouds Mostly Cloudy 800 ft
Overcast 2400 ft
Windchill 31 °F
Dew Point 31 °F
Humidity 99%
Rainfall 0.00 in
Snow Depth Not available.
7:20 AM 6:18 PM
Waning Crescent, 2% visible
SPECI KGLR 251111Z AUTO 28009G15KT 2 1/2SM -SN BR BKN008 OVC024 M03/M06 A2935 RMK AO2 SNB04 P0000 T10331056 $

Get Your Daily Forecast Email!

Thanks for signing up!

Be on the lookout for a verification email in your inbox.

You'll start receiving the daily forecast at 8 AM.

×

10-Day Weather Forecast

Almanac

Astronomy

Feb. 25, 2017 Rise Set
Actual Time
Civil Twilight
Nautical Twilight
Astronomical Twilight
Moon
Length of Visible Light
Length of Day
Tomorrow will be .
, % of the Moon is Illuminated

Today's Extremes

State Highs State Lows

Community

WunderPhotos

Upload Photos

1,962,540 photos uploaded!

WunderBlog® & News

Nearby

Air Quality

  Air Quality AQ Index Pollutant
Not available.

Snow Depth

Station Depth Elevation

Earthquake Activity

City Distance Mag. Time & Date
Minimum magnitude displayed is 2.5.

Coastal Water Temperatures

Place Temperature

Stations

Nearby Weather Stations

Station Location Temp. Windchill Dew Point Humidity Wind Precip. Elev Updated Type
                   

Watches & Warnings

There are currently no watches in effect.